createdAt,value
2018-04-26T00:00:24.267Z,5.70
2018-04-26T00:02:50.467Z,5.70
2018-04-26T00:05:16.680Z,5.70
2018-04-26T00:07:42.920Z,5.60
2018-04-26T00:10:09.887Z,5.70
2018-04-26T00:12:36.136Z,5.60
2018-04-26T00:15:03.118Z,5.60
2018-04-26T00:17:29.400Z,5.60
2018-04-26T00:19:56.384Z,5.60
2018-04-26T00:22:22.524Z,5.60
2018-04-26T00:24:48.763Z,5.60
2018-04-26T00:27:15.036Z,5.50
2018-04-26T00:29:42.036Z,5.60
2018-04-26T00:32:08.211Z,5.60
2018-04-26T00:34:34.391Z,5.60
2018-04-26T00:37:00.591Z,5.60
2018-04-26T00:39:26.789Z,5.60
2018-04-26T00:41:52.989Z,5.60
2018-04-26T00:44:19.996Z,5.50
2018-04-26T00:46:46.192Z,5.50
2018-04-26T00:49:12.419Z,5.60
2018-04-26T00:54:39.572Z,5.50
2018-04-26T00:57:05.696Z,5.50
2018-04-26T00:59:31.935Z,5.40
2018-04-26T01:01:58.680Z,5.40
2018-04-26T01:04:24.903Z,5.50
2018-04-26T01:06:51.053Z,5.50
2018-04-26T01:09:18.028Z,5.50
2018-04-26T01:11:44.285Z,5.50
2018-04-26T01:14:10.481Z,5.50
2018-04-26T01:16:36.664Z,5.40
2018-04-26T01:19:02.891Z,5.40
2018-04-26T01:21:30.100Z,5.40
2018-04-26T01:23:56.295Z,5.40
2018-04-26T01:26:22.576Z,5.40
2018-04-26T01:28:48.763Z,5.40
2018-04-26T01:31:14.952Z,5.50
2018-04-26T01:33:41.140Z,5.50
2018-04-26T01:36:07.400Z,5.60
2018-04-26T01:38:34.356Z,5.60
2018-04-26T01:41:00.651Z,5.60
2018-04-26T01:43:26.780Z,5.70
2018-04-26T01:45:52.976Z,5.80
2018-04-26T01:48:19.105Z,5.90
2018-04-26T01:50:45.254Z,5.90
2018-04-26T01:53:12.111Z,6.10
2018-04-26T01:55:38.272Z,6.20
2018-04-26T02:32:24.151Z,6.60
2018-04-26T02:34:50.337Z,6.70
2018-04-26T02:37:16.685Z,6.70
2018-04-26T02:39:42.936Z,6.70
2018-04-26T02:42:09.120Z,6.80
2018-04-26T02:44:36.026Z,7.00
2018-04-26T02:47:17.524Z,7.00
2018-04-26T02:49:43.745Z,7.10
2018-04-26T02:52:10.015Z,7.20
2018-04-26T02:54:36.248Z,7.30
2018-04-26T02:57:02.488Z,7.50
2018-04-26T02:59:28.753Z,7.60
2018-04-26T03:01:54.984Z,7.70
2018-04-26T03:04:21.273Z,7.70
2018-04-26T03:06:47.399Z,7.80
2018-04-26T03:09:13.602Z,7.90
2018-04-26T03:11:40.634Z,8.00
2018-04-26T03:14:07.620Z,7.90
2018-04-26T03:16:33.957Z,7.90
2018-04-26T03:19:00.096Z,8.00
2018-04-26T03:21:27.044Z,8.00
2018-04-26T03:23:56.171Z,8.00
2018-04-26T03:26:22.445Z,8.00
2018-04-26T03:28:48.709Z,8.10
2018-04-26T03:31:14.916Z,8.10
2018-04-26T03:33:41.048Z,8.20
2018-04-26T03:36:07.276Z,8.30
2018-04-26T03:38:33.733Z,8.30
2018-04-26T03:41:00.061Z,8.30
2018-04-26T03:43:26.233Z,8.40
2018-04-26T03:45:52.565Z,8.40
2018-04-26T03:48:18.804Z,8.50
2018-04-26T03:50:45.222Z,8.60
2018-04-26T03:53:11.387Z,8.60
2018-04-26T03:55:37.635Z,8.70
2018-04-26T03:58:03.881Z,8.70
2018-04-26T04:00:42.379Z,8.70
2018-04-26T04:03:21.747Z,8.60
2018-04-26T04:08:52.420Z,8.60
2018-04-26T04:11:18.571Z,8.50
2018-04-26T04:13:44.744Z,8.50
2018-04-26T04:16:10.989Z,8.50
2018-04-26T04:18:37.901Z,8.60
2018-04-26T04:21:04.068Z,8.60
2018-04-26T04:23:30.277Z,8.60
2018-04-26T04:25:56.433Z,8.60
2018-04-26T04:28:22.589Z,8.60
2018-04-26T04:30:48.839Z,8.60
2018-04-26T04:33:15.058Z,8.60
2018-04-26T04:35:42.324Z,8.50
2018-04-26T04:38:08.564Z,8.40
2018-04-26T04:40:34.713Z,8.40
2018-04-26T04:43:00.867Z,8.30
2018-04-26T04:45:26.998Z,8.30
2018-04-26T04:47:53.147Z,8.20
2018-04-26T04:50:19.393Z,8.30
2018-04-26T04:52:45.604Z,8.20
2018-04-26T04:55:11.807Z,8.20
2018-04-26T04:57:38.731Z,8.20
2018-04-26T05:00:04.983Z,8.20
2018-04-26T05:02:31.202Z,8.30
2018-04-26T05:04:57.655Z,8.30
2018-04-26T05:07:23.863Z,8.40
2018-04-26T05:09:50.069Z,8.30
2018-04-26T05:12:16.196Z,8.30
2018-04-26T05:14:43.030Z,8.40
2018-04-26T05:17:09.179Z,8.30
2018-04-26T05:19:35.322Z,8.30
2018-04-26T05:22:01.452Z,8.30
2018-04-26T05:24:27.576Z,8.20
2018-04-26T05:26:53.714Z,8.20
2018-04-26T05:29:19.879Z,8.20
2018-04-26T05:31:46.118Z,8.20
2018-04-26T05:34:13.081Z,8.20
2018-04-26T05:36:40.017Z,8.20
2018-04-26T05:39:06.181Z,8.20
2018-04-26T05:41:32.435Z,8.20
2018-04-26T05:43:58.672Z,8.10
2018-04-26T05:46:24.784Z,8.00
2018-04-26T05:48:50.963Z,7.90
2018-04-26T05:51:17.174Z,7.80
2018-04-26T05:53:43.326Z,7.80
2018-04-26T05:56:09.528Z,7.70
2018-04-26T05:58:35.742Z,7.60
2018-04-26T06:01:02.657Z,7.60
2018-04-26T06:03:28.843Z,7.50
2018-04-26T06:05:55.016Z,7.60
2018-04-26T06:08:21.119Z,7.60
2018-04-26T06:10:47.267Z,7.60
2018-04-26T06:13:14.144Z,7.70
2018-04-26T06:15:40.317Z,7.70
2018-04-26T06:18:06.458Z,7.70
2018-04-26T06:20:32.616Z,7.80
2018-04-26T06:22:58.746Z,7.80
2018-04-26T06:25:24.938Z,7.80
2018-04-26T06:27:51.876Z,7.90
2018-04-26T06:30:18.799Z,8.00
2018-04-26T06:32:44.999Z,8.00
2018-04-26T06:35:11.906Z,8.00
2018-04-26T06:37:52.993Z,8.00
2018-04-26T06:40:19.150Z,8.10
2018-04-26T06:42:45.375Z,8.10
2018-04-26T06:45:11.526Z,8.10
2018-04-26T06:47:37.717Z,8.10
2018-04-26T06:50:04.610Z,8.10
2018-04-26T06:52:30.814Z,8.10
2018-04-26T06:54:57.754Z,8.00
2018-04-26T06:57:24.664Z,7.90
2018-04-26T06:59:50.882Z,7.90
2018-04-26T07:02:17.794Z,8.00
2018-04-26T07:04:43.915Z,8.00
2018-04-26T07:07:10.112Z,8.00
2018-04-26T07:09:37.007Z,8.30
2018-04-26T07:12:03.261Z,8.20
2018-04-26T07:14:29.390Z,8.40
2018-04-26T07:16:58.924Z,8.50
2018-04-26T07:19:25.188Z,8.50
2018-04-26T07:21:51.455Z,8.70
2018-04-26T07:24:17.544Z,8.80
2018-04-26T07:26:43.690Z,8.80
2018-04-26T07:29:09.945Z,8.90
2018-04-26T07:31:36.161Z,9.00
2018-04-26T07:34:02.343Z,9.10
2018-04-26T07:36:28.552Z,9.20
2018-04-26T07:38:54.690Z,9.10
2018-04-26T07:41:20.852Z,9.30
2018-04-26T07:43:47.096Z,9.10
2018-04-26T07:46:14.299Z,9.20
2018-04-26T07:48:41.275Z,9.60
2018-04-26T07:51:07.487Z,9.60
2018-04-26T07:53:34.388Z,9.50
2018-04-26T07:56:00.548Z,9.50
2018-04-26T07:58:26.715Z,9.50
2018-04-26T08:00:52.936Z,9.40
2018-04-26T08:03:19.118Z,9.20
2018-04-26T08:05:46.045Z,8.70
2018-04-26T08:08:12.586Z,8.60
2018-04-26T08:10:38.747Z,8.40
2018-04-26T08:13:04.976Z,8.30
2018-04-26T08:15:31.207Z,8.30
2018-04-26T08:17:57.371Z,8.20
2018-04-26T08:20:23.610Z,8.30
2018-04-26T08:22:49.898Z,8.30
2018-04-26T08:25:16.087Z,8.40
2018-04-26T08:27:42.206Z,8.50
2018-04-26T08:30:08.359Z,8.50
2018-04-26T08:32:34.534Z,8.60
2018-04-26T08:35:01.436Z,9.00
2018-04-26T08:37:27.603Z,9.00
2018-04-26T08:39:53.784Z,9.00
2018-04-26T08:42:20.707Z,9.40
2018-04-26T08:44:46.835Z,9.40
2018-04-26T08:47:13.033Z,9.60
2018-04-26T08:49:39.990Z,10.10
2018-04-26T08:52:06.921Z,9.90
2018-04-26T08:54:33.442Z,9.90
2018-04-26T08:57:00.442Z,9.70
2018-04-26T08:59:27.343Z,9.40
2018-04-26T09:01:53.508Z,9.40
2018-04-26T09:04:19.632Z,9.20
2018-04-26T09:06:45.970Z,8.90
2018-04-26T09:09:12.011Z,8.70
2018-04-26T09:11:38.131Z,8.40
2018-04-26T09:14:04.267Z,8.30
2018-04-26T09:16:30.392Z,8.40
2018-04-26T09:18:57.240Z,8.70
2018-04-26T09:21:24.082Z,8.80
2018-04-26T09:23:50.195Z,8.80
2018-04-26T09:26:16.391Z,9.20
2018-04-26T09:28:42.507Z,9.40
2018-04-26T09:31:08.615Z,9.60
2018-04-26T09:33:34.747Z,9.90
2018-04-26T09:36:00.863Z,10.00
2018-04-26T09:38:26.962Z,9.90
2018-04-26T09:40:53.234Z,10.00
2018-04-26T09:43:19.383Z,10.10
2018-04-26T09:45:45.568Z,10.20
2018-04-26T09:48:11.689Z,10.10
2018-04-26T09:50:37.847Z,10.40
2018-04-26T09:53:03.982Z,10.60
2018-04-26T09:55:30.260Z,10.70
2018-04-26T09:57:57.275Z,10.80
2018-04-26T10:00:27.261Z,10.70
2018-04-26T10:02:54.164Z,10.90
2018-04-26T10:05:35.264Z,10.90
2018-04-26T10:08:01.501Z,11.00
2018-04-26T10:10:27.674Z,11.00
2018-04-26T10:12:53.792Z,11.20
2018-04-26T10:15:20.065Z,11.30
2018-04-26T10:17:46.161Z,11.50
2018-04-26T10:20:13.414Z,11.40
2018-04-26T10:22:39.531Z,11.30
2018-04-26T10:25:06.376Z,11.10
2018-04-26T10:27:33.299Z,11.20
2018-04-26T10:30:00.238Z,11.60
2018-04-26T10:32:26.376Z,11.60
2018-04-26T10:34:52.495Z,11.90
2018-04-26T10:37:19.329Z,12.20
2018-04-26T10:39:45.608Z,12.20
2018-04-26T10:42:11.759Z,12.10
2018-04-26T10:44:37.867Z,12.10
2018-04-26T10:47:04.773Z,12.00
2018-04-26T10:49:30.891Z,12.00
2018-04-26T10:51:57.259Z,12.00
2018-04-26T10:54:23.371Z,12.10
2018-04-26T10:56:49.491Z,11.90
2018-04-26T10:59:16.351Z,11.50
2018-04-26T11:01:42.446Z,11.50
2018-04-26T11:04:08.592Z,11.50
2018-04-26T11:06:34.809Z,11.60
2018-04-26T11:09:01.044Z,11.80
2018-04-26T11:11:27.259Z,12.30
2018-04-26T11:13:53.435Z,12.50
2018-04-26T11:16:19.568Z,12.70
2018-04-26T11:18:45.716Z,12.70
2018-04-26T11:21:11.834Z,13.10
2018-04-26T11:23:37.944Z,12.90
2018-04-26T11:26:04.051Z,13.20
2018-04-26T11:28:30.173Z,13.30
2018-04-26T11:30:56.379Z,13.30
2018-04-26T11:33:22.451Z,13.10
2018-04-26T11:35:48.554Z,12.80
2018-04-26T11:38:15.429Z,11.00
2018-04-26T11:40:42.928Z,10.90
2018-04-26T11:43:09.049Z,9.30
2018-04-26T11:45:36.194Z,8.60
2018-04-26T11:48:02.423Z,8.10
2018-04-26T11:50:29.511Z,8.10
2018-04-26T11:52:55.630Z,8.00
2018-04-26T11:55:22.570Z,8.20
2018-04-26T11:57:48.827Z,8.20
2018-04-26T12:00:15.049Z,8.30
2018-04-26T12:02:41.340Z,8.60
2018-04-26T12:05:07.671Z,9.00
2018-04-26T12:07:34.710Z,9.00
2018-04-26T12:10:00.833Z,8.90
2018-04-26T12:12:26.987Z,8.80
2018-04-26T12:14:53.372Z,8.70
2018-04-26T12:17:19.676Z,8.90
2018-04-26T12:19:45.895Z,9.00
2018-04-26T12:22:12.038Z,9.30
2018-04-26T12:24:38.163Z,9.50
2018-04-26T12:27:04.298Z,10.10
2018-04-26T12:29:30.707Z,10.50
2018-04-26T12:31:57.644Z,11.10
2018-04-26T12:34:24.864Z,11.10
2018-04-26T12:36:51.018Z,12.00
2018-04-26T12:39:17.256Z,12.80
2018-04-26T12:41:44.453Z,13.80
2018-04-26T12:44:10.685Z,14.40
2018-04-26T12:46:36.830Z,14.50
2018-04-26T12:49:02.958Z,14.60
2018-04-26T12:51:29.991Z,13.00
2018-04-26T12:53:56.143Z,13.00
2018-04-26T12:56:22.292Z,12.10
2018-04-26T12:58:48.434Z,10.80
2018-04-26T13:01:14.566Z,10.20
2018-04-26T13:03:40.726Z,9.70
2018-04-26T13:06:07.010Z,10.40
2018-04-26T13:08:33.919Z,13.30
2018-04-26T13:11:00.046Z,13.20
2018-04-26T13:13:26.341Z,14.30
2018-04-26T13:15:53.276Z,16.30
2018-04-26T13:18:19.400Z,16.30
2018-04-26T13:20:45.525Z,16.80
2018-04-26T13:23:11.811Z,17.00
2018-04-26T13:25:37.911Z,17.00
2018-04-26T13:28:04.129Z,17.20
2018-04-26T13:30:31.051Z,13.90
2018-04-26T13:32:57.262Z,13.90
2018-04-26T13:35:23.453Z,13.20
2018-04-26T13:37:51.415Z,12.30
2018-04-26T13:40:17.669Z,12.30
2018-04-26T13:42:44.616Z,11.40
2018-04-26T13:45:10.843Z,11.30
2018-04-26T13:47:36.987Z,10.60
2018-04-26T13:50:03.222Z,10.50
2018-04-26T13:52:29.348Z,11.70
2018-04-26T13:54:56.664Z,13.50
2018-04-26T13:57:23.593Z,16.00
2018-04-26T13:59:49.726Z,16.00
2018-04-26T14:02:15.937Z,16.40
2018-04-26T14:04:42.176Z,17.20
2018-04-26T14:07:08.364Z,17.30
2018-04-26T14:09:34.665Z,17.40
2018-04-26T14:12:01.034Z,16.70
2018-04-26T14:14:27.178Z,16.20
2018-04-26T14:16:53.414Z,15.80
2018-04-26T14:19:19.573Z,14.70
2018-04-26T14:21:45.709Z,13.80
2018-04-26T14:24:11.967Z,14.00
2018-04-26T14:26:38.091Z,13.80
2018-04-26T14:29:05.334Z,13.30
2018-04-26T14:31:32.526Z,12.90
2018-04-26T14:33:58.709Z,12.30
2018-04-26T14:36:25.638Z,9.90
2018-04-26T14:38:52.203Z,9.80
2018-04-26T14:41:18.542Z,9.50
2018-04-26T14:43:44.817Z,9.30
2018-04-26T14:46:10.999Z,9.40
2018-04-26T14:48:37.983Z,9.50
2018-04-26T14:51:04.204Z,9.80
2018-04-26T14:53:30.363Z,10.30
2018-04-26T14:55:56.598Z,10.70
2018-04-26T14:58:22.714Z,10.70
2018-04-26T15:00:49.061Z,10.50
2018-04-26T15:03:15.303Z,10.80
2018-04-26T15:05:41.426Z,12.10
2018-04-26T15:08:07.599Z,13.40
2018-04-26T15:10:33.774Z,15.40
2018-04-26T15:12:59.982Z,16.50
2018-04-26T15:15:26.203Z,16.70
2018-04-26T15:17:53.102Z,15.90
2018-04-26T15:20:19.218Z,15.90
2018-04-26T15:22:45.606Z,14.40
2018-04-26T15:25:11.812Z,13.30
2018-04-26T15:27:37.965Z,12.70
2018-04-26T15:30:04.238Z,12.60
2018-04-26T15:32:31.190Z,12.00
2018-04-26T15:34:57.423Z,12.00
2018-04-26T15:37:24.367Z,11.90
2018-04-26T15:39:50.491Z,11.90
2018-04-26T15:42:16.646Z,11.80
2018-04-26T15:44:43.172Z,11.60
2018-04-26T15:47:09.302Z,11.50
2018-04-26T15:49:35.465Z,11.60
2018-04-26T15:52:01.702Z,11.60
2018-04-26T15:54:34.675Z,11.50
2018-04-26T15:57:19.403Z,11.40
2018-04-26T15:59:57.962Z,11.00
2018-04-26T16:05:46.411Z,10.50
2018-04-26T16:08:31.112Z,10.40
2018-04-26T16:11:15.966Z,10.20
2018-04-26T16:14:00.859Z,10.20
2018-04-26T16:16:46.010Z,10.20
2018-04-26T16:19:32.415Z,10.30
2018-04-26T16:22:17.327Z,10.20
2018-04-26T16:24:55.980Z,10.00
2018-04-26T16:27:41.332Z,9.40
2018-04-26T16:30:19.886Z,9.30
2018-04-26T16:33:04.203Z,9.00
2018-04-26T16:35:42.684Z,9.00
2018-04-26T16:38:21.124Z,9.00
2018-04-26T16:40:47.417Z,8.70
2018-04-26T16:43:13.739Z,8.60
2018-04-26T16:45:40.138Z,8.60
2018-04-26T16:48:06.795Z,8.50
2018-04-26T16:50:33.795Z,8.60
2018-04-26T16:53:00.776Z,8.60
2018-04-26T16:55:27.931Z,8.70
2018-04-26T16:57:54.896Z,9.00
2018-04-26T17:00:21.144Z,9.00
2018-04-26T17:02:47.415Z,9.40
2018-04-26T17:05:13.611Z,9.40
2018-04-26T17:07:39.843Z,9.40
2018-04-26T17:10:06.032Z,9.40
2018-04-26T17:12:32.235Z,9.40
2018-04-26T17:14:58.380Z,9.40
2018-04-26T17:17:25.372Z,9.40
2018-04-26T17:19:52.327Z,9.40
2018-04-26T17:22:18.554Z,9.40
2018-04-26T17:24:44.784Z,9.50
2018-04-26T17:27:11.077Z,9.60
2018-04-26T17:29:37.271Z,10.10
2018-04-26T17:32:05.259Z,10.30
2018-04-26T17:34:32.500Z,10.30
2018-04-26T17:36:59.984Z,10.20
2018-04-26T17:39:26.419Z,10.20
2018-04-26T17:41:52.998Z,10.10
2018-04-26T17:44:20.308Z,9.90
2018-04-26T17:46:47.898Z,9.90
2018-04-26T17:49:15.653Z,9.90
2018-04-26T17:51:42.318Z,9.90
2018-04-26T17:54:10.970Z,9.90
2018-04-26T17:56:37.904Z,9.90
2018-04-26T17:59:08.179Z,10.00
2018-04-26T18:01:38.043Z,10.20
2018-04-26T18:04:05.699Z,10.30
2018-04-26T18:06:32.813Z,10.40
2018-04-26T18:09:01.638Z,10.30
2018-04-26T18:11:29.760Z,10.20
2018-04-26T18:13:57.361Z,10.10
2018-04-26T18:16:26.419Z,10.10
2018-04-26T18:18:55.503Z,10.00
2018-04-26T18:21:23.262Z,9.90
2018-04-26T18:23:51.186Z,9.80
2018-04-26T18:26:18.192Z,9.70
2018-04-26T18:28:48.187Z,9.60
2018-04-26T18:31:16.450Z,9.60
2018-04-26T18:33:44.967Z,9.60
2018-04-26T18:36:13.512Z,9.40
2018-04-26T18:38:41.560Z,9.40
2018-04-26T18:41:08.951Z,9.40
2018-04-26T18:43:37.018Z,9.30
2018-04-26T18:46:03.956Z,9.30
2018-04-26T18:48:34.612Z,9.40
2018-04-26T18:51:02.267Z,9.40
2018-04-26T18:53:30.529Z,9.40
2018-04-26T18:55:58.755Z,9.30
2018-04-26T18:58:26.558Z,9.10
2018-04-26T19:00:54.224Z,9.10
2018-04-26T19:03:21.994Z,9.00
2018-04-26T19:05:49.271Z,9.00
2018-04-26T19:08:17.163Z,9.00
2018-04-26T19:10:45.309Z,8.90
2018-04-26T19:13:13.218Z,8.80
2018-04-26T19:15:40.299Z,8.80
2018-04-26T19:18:07.653Z,8.70
2018-04-26T19:20:36.144Z,8.70
2018-04-26T19:23:03.163Z,8.70
2018-04-26T19:25:30.067Z,8.70
2018-04-26T19:27:58.593Z,8.60
2018-04-26T19:30:24.953Z,8.60
2018-04-26T19:32:51.149Z,8.40
2018-04-26T19:35:17.484Z,8.30
2018-04-26T19:37:43.657Z,8.10
2018-04-26T19:40:10.032Z,8.00
2018-04-26T19:42:36.264Z,7.80
2018-04-26T19:45:02.467Z,7.80
2018-04-26T19:47:29.488Z,7.70
2018-04-26T19:49:55.688Z,7.70
2018-04-26T19:52:21.907Z,7.70
2018-04-26T19:54:48.134Z,7.60
2018-04-26T19:57:14.383Z,7.60
2018-04-26T19:59:40.515Z,7.70
2018-04-26T20:02:06.680Z,7.70
2018-04-26T20:04:33.627Z,7.70
2018-04-26T20:07:00.567Z,7.70
2018-04-26T20:09:27.616Z,7.70
2018-04-26T20:11:54.488Z,7.80
2018-04-26T20:14:20.644Z,7.70
2018-04-26T20:16:46.804Z,7.70
2018-04-26T20:19:13.084Z,7.70
2018-04-26T20:21:39.308Z,7.70
2018-04-26T20:24:05.520Z,7.60
2018-04-26T20:26:31.758Z,7.70
2018-04-26T20:28:58.029Z,7.60
2018-04-26T20:31:24.997Z,7.50
2018-04-26T20:33:51.183Z,7.50
2018-04-26T20:36:17.396Z,7.60
2018-04-26T20:38:43.588Z,7.60
2018-04-26T20:41:10.592Z,7.50
2018-04-26T20:43:36.716Z,7.50
2018-04-26T20:46:02.931Z,7.60
2018-04-26T20:48:40.376Z,7.60
2018-04-26T20:51:07.353Z,7.60
2018-04-26T20:53:33.559Z,7.60
2018-04-26T20:56:00.544Z,7.60
2018-04-26T20:58:26.680Z,7.60
2018-04-26T21:00:52.916Z,7.50
2018-04-26T21:03:19.154Z,7.60
2018-04-26T21:05:45.451Z,7.60
2018-04-26T21:08:11.628Z,7.60
2018-04-26T21:10:37.928Z,7.60
2018-04-26T21:13:04.130Z,7.60
2018-04-26T21:15:30.381Z,7.50
2018-04-26T21:17:56.600Z,7.50
2018-04-26T21:20:22.849Z,7.60
2018-04-26T21:22:49.120Z,7.50
2018-04-26T21:25:17.067Z,7.50
2018-04-26T21:27:43.582Z,7.50
2018-04-26T21:30:09.764Z,7.50
2018-04-26T21:32:36.024Z,7.50
2018-04-26T21:35:02.256Z,7.50
2018-04-26T21:37:28.489Z,7.50
2018-04-26T21:39:54.740Z,7.40
2018-04-26T21:42:20.976Z,7.30
2018-04-26T21:44:47.234Z,7.30
2018-04-26T21:47:13.661Z,7.20
2018-04-26T21:49:39.840Z,7.10
2018-04-26T21:52:12.001Z,7.00
2018-04-26T21:54:44.469Z,7.00
2018-04-26T21:57:16.812Z,7.00
2018-04-26T21:59:49.017Z,6.90
2018-04-26T22:02:21.526Z,6.80
2018-04-26T22:04:53.928Z,6.80
2018-04-26T22:07:20.178Z,6.80
2018-04-26T22:09:46.419Z,6.70
2018-04-26T22:12:13.740Z,6.70
2018-04-26T22:14:39.917Z,6.70
2018-04-26T22:17:06.177Z,6.70
2018-04-26T22:19:33.125Z,6.60
2018-04-26T22:22:00.117Z,6.70
2018-04-26T22:24:26.321Z,6.60
2018-04-26T22:26:52.689Z,6.70
2018-04-26T22:29:18.937Z,6.70
2018-04-26T22:31:45.228Z,6.60
2018-04-26T22:34:11.503Z,6.50
2018-04-26T22:36:38.476Z,6.50
2018-04-26T22:39:04.744Z,6.40
2018-04-26T22:41:30.956Z,6.40
2018-04-26T22:43:57.285Z,6.40
2018-04-26T22:46:23.557Z,6.40
2018-04-26T22:48:49.808Z,6.50
2018-04-26T22:51:17.824Z,6.40
2018-04-26T22:53:44.057Z,6.40
2018-04-26T22:56:10.332Z,6.30
2018-04-26T22:58:37.318Z,6.20
2018-04-26T23:01:03.620Z,6.20
2018-04-26T23:03:29.912Z,6.20
2018-04-26T23:05:56.129Z,6.20
2018-04-26T23:08:22.372Z,6.20
2018-04-26T23:10:48.696Z,6.20
2018-04-26T23:13:14.976Z,6.20
2018-04-26T23:15:41.213Z,6.10
2018-04-26T23:18:07.496Z,6.10
2018-04-26T23:20:34.520Z,6.00
2018-04-26T23:23:00.829Z,6.00
2018-04-26T23:25:27.096Z,6.00
2018-04-26T23:27:53.433Z,6.00
2018-04-26T23:30:19.693Z,6.00
2018-04-26T23:32:45.943Z,6.00
2018-04-26T23:35:12.188Z,6.00
2018-04-26T23:37:38.419Z,6.00
2018-04-26T23:40:04.743Z,6.00
2018-04-26T23:42:30.992Z,6.00
2018-04-26T23:44:57.293Z,5.90
2018-04-26T23:47:23.492Z,5.90
2018-04-26T23:49:49.720Z,5.90
2018-04-26T23:52:15.979Z,5.80
2018-04-26T23:54:42.254Z,5.90
2018-04-26T23:57:08.465Z,5.90
2018-04-26T23:59:35.773Z,5.80
